createdAt,value
2023-02-14T00:02:13.137Z,143625.41
2023-02-14T00:04:44.063Z,143620.56
2023-02-14T00:07:11.721Z,143507.09
2023-02-14T00:09:38.785Z,143492.63
2023-02-14T00:12:07.376Z,143598.88
2023-02-14T00:14:53.018Z,143590.41
2023-02-14T00:17:20.067Z,143496.25
2023-02-14T00:19:47.110Z,143581.97
2023-02-14T00:22:14.264Z,143584.34
2023-02-14T00:24:41.311Z,143579.53
2023-02-14T00:27:08.601Z,143476.97
2023-02-14T00:29:35.674Z,143490.25
2023-02-14T00:32:02.915Z,143352.69
2023-02-14T00:34:29.986Z,143543.31
2023-02-14T00:36:57.054Z,143514.38
2023-02-14T00:39:24.515Z,143495.06
2023-02-14T00:41:51.594Z,143531.28
2023-02-14T00:44:19.442Z,143550.56
2023-02-14T00:46:46.572Z,143555.41
2023-02-14T00:49:13.740Z,143518.00
2023-02-14T00:51:40.885Z,143528.84
2023-02-14T00:54:07.930Z,143546.94
2023-02-14T00:56:34.996Z,143405.78
2023-02-14T00:59:02.157Z,143505.91
2023-02-14T01:01:29.285Z,143425.06
2023-02-14T01:03:56.449Z,143417.84
2023-02-14T01:06:23.415Z,143432.31
2023-02-14T01:08:50.440Z,143478.16
2023-02-14T01:11:20.461Z,143446.78
2023-02-14T01:13:49.828Z,143456.44
2023-02-14T01:16:22.443Z,143364.75
2023-02-14T01:18:50.286Z,143374.41
2023-02-14T01:21:19.869Z,143422.66
2023-02-14T01:23:48.936Z,143382.84
2023-02-14T01:26:16.867Z,143466.09
2023-02-14T01:28:44.906Z,143444.34
2023-02-14T01:31:15.611Z,143470.91
2023-02-14T01:33:44.311Z,143470.91
2023-02-14T01:36:21.848Z,143445.59
2023-02-14T01:38:52.318Z,143443.16
2023-02-14T01:41:19.864Z,143443.16
2023-02-14T01:43:52.815Z,143447.97
2023-02-14T01:46:20.029Z,143451.63
2023-02-14T01:48:48.012Z,143458.88
2023-02-14T01:51:17.882Z,143328.56
2023-02-14T01:53:45.013Z,143404.56
2023-02-14T01:56:17.935Z,143369.59
2023-02-14T01:58:48.576Z,143333.41
2023-02-14T02:01:17.906Z,143371.97
2023-02-14T02:03:53.529Z,143353.88
2023-02-14T02:06:23.719Z,143374.41
2023-02-14T02:09:02.573Z,143343.03
2023-02-14T02:11:30.712Z,143375.59
2023-02-14T02:13:57.751Z,143376.78
2023-02-14T02:16:43.336Z,143381.66
2023-02-14T02:19:36.503Z,143380.41
2023-02-14T02:22:47.033Z,143380.41
2023-02-14T02:25:37.973Z,143374.41
2023-02-14T02:28:23.359Z,143367.16
2023-02-14T02:31:24.895Z,143379.22
2023-02-14T02:34:19.914Z,143379.22
2023-02-14T02:37:27.533Z,143270.69
2023-02-14T02:40:19.890Z,143364.75
2023-02-14T02:43:02.566Z,143309.28
2023-02-14T02:46:17.216Z,143376.78
2023-02-14T02:49:03.435Z,143386.47
2023-02-14T02:52:00.349Z,143365.94
2023-02-14T02:54:45.316Z,143321.31
2023-02-14T02:57:19.418Z,143330.97
2023-02-14T02:59:47.336Z,143374.41
2023-02-14T03:02:14.400Z,143364.75
2023-02-14T03:04:55.032Z,143343.03
2023-02-14T03:07:35.711Z,143328.56
2023-02-14T03:10:12.213Z,143320.13
2023-02-14T03:13:09.594Z,143323.75
2023-02-14T03:16:05.774Z,143329.75
2023-02-14T03:19:16.682Z,143330.97
2023-02-14T03:21:55.832Z,143333.41
2023-02-14T03:24:38.543Z,143211.59
2023-02-14T03:27:32.639Z,143308.03
2023-02-14T03:30:08.434Z,143300.84
2023-02-14T03:32:39.709Z,143275.50
2023-02-14T03:35:12.591Z,143267.06
2023-02-14T03:38:07.048Z,143251.41
2023-02-14T03:40:37.792Z,143199.53
2023-02-14T03:43:12.578Z,143239.31
2023-02-14T03:45:45.943Z,143191.09
2023-02-14T03:48:16.404Z,143203.16
2023-02-14T03:50:47.348Z,143146.53
2023-02-14T03:53:19.444Z,143230.88
2023-02-14T03:55:54.996Z,143176.63
2023-02-14T03:58:45.276Z,143203.16
2023-02-14T04:01:20.620Z,143053.72
2023-02-14T04:03:49.020Z,143209.16
2023-02-14T04:06:20.361Z,143203.16
2023-02-14T04:08:47.439Z,143192.31
2023-02-14T04:11:15.011Z,143200.78
2023-02-14T04:13:42.006Z,143188.69
2023-02-14T04:16:09.576Z,143083.84
2023-02-14T04:18:55.489Z,143181.44
2023-02-14T04:21:22.505Z,143174.25
2023-02-14T04:23:49.575Z,143150.09
2023-02-14T04:26:16.668Z,143113.94
2023-02-14T04:28:43.723Z,143146.53
2023-02-14T04:31:11.423Z,143154.91
2023-02-14T04:33:39.260Z,143142.91
2023-02-14T04:36:06.729Z,143134.47
2023-02-14T04:38:33.795Z,143162.16
2023-02-14T04:41:01.456Z,143128.44
2023-02-14T04:43:28.845Z,143150.09
2023-02-14T04:45:56.027Z,143150.09
2023-02-14T04:48:23.055Z,143154.91
2023-02-14T04:50:54.557Z,143150.09
2023-02-14T04:53:22.170Z,143060.97
2023-02-14T04:55:50.180Z,143133.25
2023-02-14T04:58:18.479Z,143141.72
2023-02-14T05:00:45.620Z,143060.97
2023-02-14T05:03:12.740Z,143121.19
2023-02-14T05:05:39.750Z,143092.28
2023-02-14T05:08:06.808Z,143130.84
2023-02-14T05:10:33.839Z,143026.00
2023-02-14T05:13:01.772Z,143118.75
2023-02-14T05:15:28.872Z,143140.47
2023-02-14T05:17:55.871Z,143126.00
2023-02-14T05:20:22.916Z,143140.47
2023-02-14T05:22:49.931Z,143005.50
2023-02-14T05:25:17.078Z,143126.00
2023-02-14T05:27:44.072Z,143064.53
2023-02-14T05:30:12.312Z,143083.84
2023-02-14T05:32:39.460Z,143099.50
2023-02-14T05:35:06.841Z,143097.09
2023-02-14T05:37:33.855Z,142975.41
2023-02-14T05:40:00.982Z,143068.16
2023-02-14T05:42:27.985Z,143094.66
2023-02-14T05:44:55.034Z,143092.28
2023-02-14T05:47:22.042Z,143070.59
2023-02-14T05:49:49.106Z,143076.59
2023-02-14T05:52:16.269Z,142957.34
2023-02-14T05:54:43.323Z,143093.47
2023-02-14T05:57:10.381Z,143013.94
2023-02-14T05:59:37.453Z,143085.03
2023-02-14T06:02:04.587Z,142986.25
2023-02-14T06:04:31.686Z,143074.22
2023-02-14T06:06:58.736Z,143077.78
2023-02-14T06:09:25.818Z,143057.31
2023-02-14T06:11:55.209Z,142958.53
2023-02-14T06:14:22.453Z,143000.69
2023-02-14T06:16:49.494Z,143058.53
2023-02-14T06:19:16.601Z,143066.97
2023-02-14T06:21:43.619Z,143056.13
2023-02-14T06:24:10.640Z,142998.31
2023-02-14T06:26:37.741Z,142823.66
2023-02-14T06:29:04.780Z,143058.53
2023-02-14T06:31:32.180Z,143059.72
2023-02-14T06:33:59.278Z,143020.00
2023-02-14T06:36:26.956Z,142894.72
2023-02-14T06:38:53.986Z,143048.88
2023-02-14T06:41:20.998Z,143063.34
2023-02-14T06:43:48.657Z,143080.22
2023-02-14T06:46:16.732Z,143013.94
2023-02-14T06:48:44.586Z,142932.03
2023-02-14T06:51:12.021Z,143060.97
2023-02-14T06:53:39.211Z,143070.59
2023-02-14T06:56:06.530Z,143053.72
2023-02-14T06:58:33.729Z,143058.53
2023-02-14T07:01:01.291Z,143036.81
2023-02-14T07:03:28.604Z,143060.97
2023-02-14T07:05:58.224Z,143069.41
2023-02-14T07:08:26.294Z,143075.41
2023-02-14T07:10:59.232Z,143085.03
2023-02-14T07:13:26.741Z,143065.78
2023-02-14T07:15:54.145Z,143104.31
2023-02-14T07:18:21.221Z,143107.94
2023-02-14T07:20:52.510Z,142970.59
2023-02-14T07:23:19.563Z,143141.72
2023-02-14T07:25:46.587Z,143042.88
2023-02-14T07:28:13.589Z,143207.97
2023-02-14T07:30:40.784Z,143224.88
2023-02-14T07:33:07.895Z,143326.13
2023-02-14T07:35:35.355Z,143370.78
2023-02-14T07:38:02.433Z,143303.22
2023-02-14T07:40:29.970Z,143439.53
2023-02-14T07:42:58.305Z,143536.09
2023-02-14T07:45:25.550Z,143574.69
2023-02-14T07:47:54.685Z,143650.75
2023-02-14T07:50:23.026Z,143676.13
2023-02-14T07:52:50.525Z,143747.34
2023-02-14T07:55:19.167Z,143792.06
2023-02-14T07:57:49.522Z,143805.34
2023-02-14T08:00:17.233Z,143813.81
2023-02-14T08:02:44.344Z,143829.50
2023-02-14T08:05:11.852Z,143857.31
2023-02-14T08:07:38.958Z,143802.94
2023-02-14T08:10:06.794Z,143903.22
2023-02-14T08:12:52.215Z,143915.28
2023-02-14T08:15:37.972Z,143949.13
2023-02-14T08:18:05.131Z,143905.63
2023-02-14T08:20:32.180Z,144014.41
2023-02-14T08:22:59.249Z,143953.97
2023-02-14T08:25:26.309Z,144053.09
2023-02-14T08:27:55.156Z,143856.06
2023-02-14T08:30:23.205Z,144041.00
2023-02-14T08:32:50.273Z,144072.44
2023-02-14T08:35:17.393Z,144039.81
2023-02-14T08:37:44.391Z,144043.44
2023-02-14T08:40:12.034Z,144059.13
2023-02-14T08:42:39.143Z,143972.09
2023-02-14T08:45:06.939Z,144057.94
2023-02-14T08:47:35.776Z,144041.00
2023-02-14T08:50:03.881Z,143940.69
2023-02-14T08:52:30.966Z,144009.56
2023-02-14T08:54:58.107Z,144004.72
2023-02-14T08:57:25.236Z,144003.53
2023-02-14T08:59:52.228Z,143923.75
2023-02-14T09:02:19.313Z,143975.75
2023-02-14T09:04:47.458Z,143949.13
2023-02-14T09:07:14.795Z,144026.50
2023-02-14T09:09:41.920Z,144055.50
2023-02-14T09:12:10.051Z,144062.78
2023-02-14T09:14:39.277Z,144057.94
2023-02-14T09:17:06.649Z,144126.84
2023-02-14T09:19:34.553Z,144176.44
2023-02-14T09:22:03.848Z,144124.44
2023-02-14T09:24:31.913Z,144233.31
2023-02-14T09:26:59.130Z,144302.25
2023-02-14T09:29:28.322Z,144328.88
2023-02-14T09:31:58.109Z,144207.88
2023-02-14T09:34:27.243Z,144370.03
2023-02-14T09:36:54.439Z,144413.56
2023-02-14T09:39:21.538Z,144405.09
2023-02-14T09:42:36.748Z,144458.38
2023-02-14T09:45:06.865Z,144478.97
2023-02-14T09:47:52.796Z,144478.97
2023-02-14T09:50:28.357Z,144449.88
2023-02-14T09:53:21.518Z,144389.38
2023-02-14T09:55:59.308Z,144527.38
2023-02-14T09:58:39.368Z,144563.69
2023-02-14T10:01:06.355Z,144580.66
2023-02-14T10:03:59.594Z,144592.78
2023-02-14T10:06:45.144Z,144606.13
2023-02-14T10:09:28.260Z,144617.00
2023-02-14T10:11:59.921Z,144655.78
2023-02-14T10:14:30.692Z,144659.38
2023-02-14T10:17:44.656Z,144641.22
2023-02-14T10:20:26.783Z,144683.69
2023-02-14T10:23:09.256Z,144633.97
2023-02-14T10:25:52.232Z,144704.25
2023-02-14T10:28:30.043Z,144681.25
2023-02-14T10:31:20.429Z,144721.22
2023-02-14T10:33:52.722Z,144723.63
2023-02-14T10:37:03.246Z,144747.88
2023-02-14T10:40:01.086Z,144785.44
2023-02-14T10:42:51.166Z,144784.25
2023-02-14T10:45:45.520Z,144796.31
2023-02-14T10:48:24.990Z,144827.84
2023-02-14T10:51:05.252Z,144847.28
2023-02-14T10:53:53.857Z,144854.50
2023-02-14T10:56:40.316Z,144837.56
2023-02-14T10:59:46.341Z,144848.47
2023-02-14T11:02:15.847Z,144859.34
2023-02-14T11:04:46.549Z,144843.63
2023-02-14T11:07:15.283Z,144876.34
2023-02-14T11:09:42.672Z,144875.16
2023-02-14T11:12:10.501Z,144905.41
2023-02-14T11:14:39.284Z,144912.72
2023-02-14T11:17:37.262Z,144924.84
2023-02-14T11:20:22.597Z,144958.78
2023-02-14T11:22:50.454Z,144958.78
2023-02-14T11:25:22.755Z,144963.63
2023-02-14T11:27:57.524Z,144963.63
2023-02-14T11:30:35.146Z,144975.75
2023-02-14T11:33:04.136Z,144986.66
2023-02-14T11:35:35.082Z,145007.28
2023-02-14T11:38:06.916Z,145218.34
2023-02-14T11:40:36.511Z,145555.91
2023-02-14T11:43:15.842Z,145438.13
2023-02-14T11:45:45.845Z,145286.34
2023-02-14T11:48:38.213Z,145203.78
2023-02-14T11:51:13.939Z,145060.66
2023-02-14T11:53:48.820Z,145157.69
2023-02-14T11:56:19.420Z,145129.81
2023-02-14T11:58:53.125Z,145143.16
2023-02-14T12:01:32.799Z,145135.84
2023-02-14T12:04:07.293Z,145135.84
2023-02-14T12:06:36.562Z,145138.31
2023-02-14T12:09:21.983Z,145138.31
2023-02-14T12:11:57.252Z,145038.81
2023-02-14T12:14:32.909Z,145115.25
2023-02-14T12:17:11.901Z,145131.00
2023-02-14T12:20:11.026Z,145140.69
2023-02-14T12:22:55.718Z,145140.69
2023-02-14T12:25:27.241Z,145152.84
2023-02-14T12:28:05.314Z,145154.06
2023-02-14T12:30:34.999Z,145160.09
2023-02-14T12:33:02.211Z,145003.66
2023-02-14T12:35:54.127Z,145169.84
2023-02-14T12:38:55.809Z,145050.94
2023-02-14T12:41:43.127Z,144991.50
2023-02-14T12:44:48.119Z,145150.41
2023-02-14T12:47:26.505Z,145148.00
2023-02-14T12:50:18.505Z,145146.78
2023-02-14T12:53:27.191Z,145150.41
2023-02-14T12:56:15.708Z,145137.06
2023-02-14T12:58:57.593Z,145145.56
2023-02-14T13:01:50.054Z,145152.84
2023-02-14T13:04:45.629Z,145157.69
2023-02-14T13:07:26.693Z,145185.59
2023-02-14T13:09:59.035Z,145180.75
2023-02-14T13:12:45.151Z,145174.69
2023-02-14T13:15:24.027Z,145189.25
2023-02-14T13:17:58.501Z,145189.25
2023-02-14T13:20:52.227Z,145185.59
2023-02-14T13:23:34.809Z,145181.94
2023-02-14T13:26:24.853Z,145198.94
2023-02-14T13:28:57.325Z,145058.22
2023-02-14T13:31:24.894Z,145185.59
2023-02-14T13:33:56.849Z,145205.00
2023-02-14T13:36:26.579Z,145116.44
2023-02-14T13:38:56.789Z,145070.38
2023-02-14T13:41:25.250Z,145196.50
2023-02-14T13:44:01.495Z,145215.94
2023-02-14T13:46:35.131Z,145225.66
2023-02-14T13:49:25.326Z,145144.34
2023-02-14T13:51:58.618Z,145201.41
2023-02-14T13:54:47.861Z,145239.00
2023-02-14T13:57:36.314Z,145241.41
2023-02-14T14:00:35.150Z,145254.78
2023-02-14T14:03:03.707Z,145236.56
2023-02-14T14:05:30.729Z,145246.25
2023-02-14T14:08:23.629Z,145235.34
2023-02-14T14:10:56.425Z,145231.69
2023-02-14T14:13:41.926Z,145235.34
2023-02-14T14:16:27.285Z,145230.50
2023-02-14T14:19:03.273Z,145223.19
2023-02-14T14:21:38.967Z,145191.66
2023-02-14T14:24:17.935Z,145205.00
2023-02-14T14:26:51.882Z,145172.25
2023-02-14T14:29:27.401Z,145101.91
2023-02-14T14:31:57.597Z,145174.69
2023-02-14T14:34:28.601Z,145165.00
2023-02-14T14:37:07.080Z,145173.44
2023-02-14T14:39:35.741Z,145161.34
2023-02-14T14:42:14.721Z,145139.50
2023-02-14T14:45:09.537Z,145106.75
2023-02-14T14:47:45.246Z,144961.22
2023-02-14T14:50:27.637Z,145094.59
2023-02-14T14:52:59.374Z,145092.22
2023-02-14T14:55:30.252Z,144952.72
2023-02-14T14:58:05.412Z,145087.31
2023-02-14T15:00:34.432Z,145077.63
2023-02-14T15:03:17.207Z,145048.53
2023-02-14T15:05:45.648Z,145033.97
2023-02-14T15:08:32.189Z,145029.13
2023-02-14T15:11:07.521Z,144904.22
2023-02-14T15:13:53.487Z,145002.44
2023-02-14T15:16:29.698Z,145007.28
2023-02-14T15:19:07.268Z,144946.69
2023-02-14T15:21:34.636Z,144966.06
2023-02-14T15:24:03.052Z,145013.34
2023-02-14T15:26:32.669Z,144907.88
2023-02-14T15:29:02.437Z,144995.16
2023-02-14T15:31:38.378Z,144966.06
2023-02-14T15:34:06.893Z,144947.88
2023-02-14T15:36:35.071Z,144938.19
2023-02-14T15:39:06.140Z,144932.09
2023-02-14T15:41:33.476Z,144912.72
2023-02-14T15:44:00.761Z,144835.13
2023-02-14T15:46:39.038Z,144847.28
2023-02-14T15:49:10.572Z,144635.16
2023-02-14T15:51:39.083Z,144783.03
2023-02-14T15:54:22.836Z,144738.19
2023-02-14T15:56:52.713Z,144670.34
2023-02-14T15:59:26.810Z,144684.88
2023-02-14T16:02:00.404Z,144663.03
2023-02-14T16:04:32.800Z,144653.34
2023-02-14T16:07:04.413Z,144580.66
2023-02-14T16:09:35.985Z,144522.53
2023-02-14T16:12:34.304Z,144554.00
2023-02-14T16:15:16.090Z,144524.97
2023-02-14T16:17:44.046Z,144483.81
2023-02-14T16:20:35.209Z,144411.19
2023-02-14T16:23:23.313Z,144437.81
2023-02-14T16:25:51.299Z,144245.38
2023-02-14T16:28:18.938Z,144386.94
2023-02-14T16:30:52.658Z,144239.34
2023-02-14T16:33:23.078Z,144367.59
2023-02-14T16:35:50.558Z,144326.44
2023-02-14T16:38:19.292Z,144314.34
2023-02-14T16:40:52.605Z,144287.75
2023-02-14T16:43:20.914Z,144236.91
2023-02-14T16:45:48.474Z,144224.84
2023-02-14T16:48:15.969Z,144192.13
2023-02-14T16:50:44.349Z,144182.47
2023-02-14T16:53:25.718Z,144153.47
2023-02-14T16:55:54.446Z,144137.72
2023-02-14T16:58:26.423Z,143955.16
2023-02-14T17:00:53.688Z,144114.75
2023-02-14T17:03:20.915Z,144103.88
2023-02-14T17:05:48.009Z,144113.53
2023-02-14T17:08:16.248Z,144060.34
2023-02-14T17:10:46.110Z,144031.34
2023-02-14T17:13:15.974Z,144003.53
2023-02-14T17:15:43.200Z,144026.50
2023-02-14T17:18:13.189Z,144007.16
2023-02-14T17:20:40.307Z,143961.25
2023-02-14T17:23:07.389Z,143985.41
2023-02-14T17:25:35.105Z,143748.59
2023-02-14T17:28:02.150Z,143939.47
2023-02-14T17:30:29.266Z,143933.41
2023-02-14T17:32:56.709Z,143910.44
2023-02-14T17:35:23.922Z,143874.19
2023-02-14T17:37:50.957Z,143812.63
2023-02-14T17:40:18.138Z,143873.00
2023-02-14T17:42:45.835Z,143851.25
2023-02-14T17:45:12.974Z,143818.63
2023-02-14T17:47:43.054Z,143799.31
2023-02-14T17:50:10.500Z,143811.38
2023-02-14T17:52:37.831Z,143811.38
2023-02-14T17:55:06.765Z,143844.03
2023-02-14T17:57:33.793Z,143787.22
2023-02-14T18:00:01.851Z,143835.56
2023-02-14T18:02:28.956Z,143808.97
2023-02-14T18:04:57.642Z,143802.94
2023-02-14T18:07:25.439Z,143782.41
2023-02-14T18:09:52.480Z,143782.41
2023-02-14T18:12:19.496Z,143736.50
2023-02-14T18:14:46.545Z,143717.19
2023-02-14T18:17:13.651Z,143671.31
2023-02-14T18:19:40.688Z,143787.22
2023-02-14T18:22:07.670Z,143603.69
2023-02-14T18:24:34.962Z,143743.78
2023-02-14T18:27:02.840Z,143776.38
2023-02-14T18:29:29.931Z,143750.97
2023-02-14T18:31:56.969Z,143781.19
2023-02-14T18:34:24.298Z,143594.00
2023-02-14T18:36:51.324Z,143738.91
2023-02-14T18:39:19.985Z,143746.16
2023-02-14T18:41:47.365Z,143701.47
2023-02-14T18:44:14.374Z,143691.81
2023-02-14T18:46:41.391Z,143700.28
2023-02-14T18:49:09.442Z,143690.63
2023-02-14T18:51:39.295Z,143695.44
2023-02-14T18:54:07.179Z,143702.66
2023-02-14T18:56:37.299Z,143731.69
2023-02-14T18:59:08.194Z,143709.94
2023-02-14T19:01:38.143Z,143755.81
2023-02-14T19:04:08.489Z,143735.31
2023-02-14T19:06:36.263Z,143740.13
2023-02-14T19:09:08.926Z,143736.50
2023-02-14T19:11:36.586Z,143572.31
2023-02-14T19:14:09.761Z,143604.88
2023-02-14T19:16:54.552Z,143736.50
2023-02-14T19:19:22.793Z,143731.69
2023-02-14T19:21:50.739Z,143746.16
2023-02-14T19:24:19.547Z,143579.53
2023-02-14T19:26:47.062Z,143579.53
2023-02-14T19:29:20.090Z,143514.38
2023-02-14T19:31:49.799Z,143664.03
2023-02-14T19:34:20.181Z,143631.47
2023-02-14T19:36:48.206Z,143660.41
2023-02-14T19:39:15.820Z,143546.94
2023-02-14T19:41:42.992Z,143630.22
2023-02-14T19:44:13.764Z,143601.25
2023-02-14T19:46:42.350Z,143603.69
2023-02-14T19:49:15.048Z,143590.41
2023-02-14T19:51:42.836Z,143455.25
2023-02-14T19:54:10.354Z,143470.91
2023-02-14T19:56:40.207Z,143596.44
2023-02-14T19:59:09.024Z,143575.91
2023-02-14T20:01:42.234Z,143585.59
2023-02-14T20:04:12.043Z,143560.22
2023-02-14T20:06:39.345Z,143511.94
2023-02-14T20:09:07.564Z,143538.50
2023-02-14T20:11:49.832Z,143514.38
2023-02-14T20:14:28.814Z,143507.09
2023-02-14T20:16:58.366Z,143497.47
2023-02-14T20:19:27.734Z,143525.22
2023-02-14T20:21:55.002Z,143487.81
2023-02-14T20:24:25.509Z,143525.22
2023-02-14T20:26:53.548Z,143367.16
2023-02-14T20:29:21.849Z,143432.31
2023-02-14T20:31:55.145Z,143502.28
2023-02-14T20:34:22.329Z,143350.28
2023-02-14T20:36:52.908Z,143473.34
2023-02-14T20:39:21.996Z,143398.50
2023-02-14T20:41:50.145Z,143403.34
2023-02-14T20:44:21.180Z,143468.50
2023-02-14T20:46:50.142Z,143466.09
2023-02-14T20:49:17.769Z,143464.88
2023-02-14T20:51:46.407Z,143405.78
2023-02-14T20:54:13.428Z,143435.94
2023-02-14T20:56:40.544Z,143412.97
2023-02-14T20:59:09.717Z,143438.34
2023-02-14T21:01:36.896Z,143412.97
2023-02-14T21:04:03.993Z,143408.16
2023-02-14T21:06:32.950Z,143410.59
2023-02-14T21:09:00.411Z,143400.94
2023-02-14T21:11:27.960Z,143376.78
2023-02-14T21:14:00.054Z,143388.88
2023-02-14T21:16:28.778Z,143399.75
2023-02-14T21:19:00.788Z,143415.41
2023-02-14T21:21:36.057Z,143374.41
2023-02-14T21:24:10.066Z,143302.03
2023-02-14T21:26:39.162Z,143441.97
2023-02-14T21:29:06.388Z,143427.50
2023-02-14T21:31:34.302Z,143403.34
2023-02-14T21:34:02.212Z,143282.75
2023-02-14T21:36:31.690Z,143369.59
2023-02-14T21:38:59.788Z,143236.94
2023-02-14T21:41:29.739Z,143412.97
2023-02-14T21:44:00.750Z,143420.25
2023-02-14T21:46:54.256Z,143403.34
2023-02-14T21:49:43.275Z,143405.78
2023-02-14T21:52:10.263Z,143367.16
2023-02-14T21:54:44.202Z,143359.94
2023-02-14T21:57:11.249Z,143351.47
2023-02-14T21:59:40.232Z,143329.75
2023-02-14T22:02:07.688Z,143379.22
2023-02-14T22:04:35.433Z,143285.13
2023-02-14T22:07:02.422Z,143157.34
2023-02-14T22:09:29.471Z,143335.78
2023-02-14T22:11:56.616Z,143357.50
2023-02-14T22:14:23.735Z,143287.56
2023-02-14T22:16:50.727Z,143376.78
2023-02-14T22:19:17.737Z,143357.50
2023-02-14T22:21:44.743Z,143346.66
2023-02-14T22:24:12.579Z,143345.47
2023-02-14T22:26:43.059Z,143321.31
2023-02-14T22:29:11.787Z,143140.47
2023-02-14T22:31:42.195Z,143147.72
2023-02-14T22:34:11.315Z,143333.41
2023-02-14T22:36:38.400Z,143309.28
2023-02-14T22:39:05.948Z,143154.91
2023-02-14T22:41:37.547Z,143113.94
2023-02-14T22:44:08.288Z,143308.03
2023-02-14T22:46:39.068Z,143153.72
2023-02-14T22:49:07.247Z,143314.09
2023-02-14T22:51:39.434Z,143311.69
2023-02-14T22:54:12.321Z,143288.78
2023-02-14T22:56:42.094Z,143263.44
2023-02-14T22:59:23.717Z,143238.13
2023-02-14T23:01:52.616Z,143229.69
2023-02-14T23:04:22.705Z,143227.25
2023-02-14T23:06:51.827Z,143179.06
2023-02-14T23:09:19.703Z,143206.78
2023-02-14T23:11:47.995Z,143167.00
2023-02-14T23:14:35.127Z,143174.25
2023-02-14T23:17:23.388Z,143188.69
2023-02-14T23:20:09.341Z,143209.16
2023-02-14T23:22:41.055Z,143205.59
2023-02-14T23:25:10.565Z,143215.22
2023-02-14T23:27:43.913Z,143191.09
2023-02-14T23:30:16.497Z,143097.09
2023-02-14T23:32:44.004Z,143150.09
2023-02-14T23:35:11.314Z,143162.16
2023-02-14T23:37:38.348Z,143162.16
2023-02-14T23:40:06.691Z,143162.16
2023-02-14T23:42:33.719Z,143176.63
2023-02-14T23:45:20.891Z,143135.66
2023-02-14T23:47:48.099Z,143165.78
2023-02-14T23:50:15.545Z,143158.53
2023-02-14T23:52:44.361Z,143198.34
2023-02-14T23:55:11.735Z,143135.66
2023-02-14T23:57:39.505Z,143167.00
